Time;durP1;ratioP1;P1;durP2;ratioP2;P2;SDS_P1;SDS_P2;PMS_P1;PMS_P2;Temp;Humidity;BMP_temperature;BMP_pressure;BME280_temperature;BME280_humidity;BME280_pressure;Samples;Min_cycle;Max_cycle;Signal;HPM_P1;HPM_P2
2023/01/13 00:01:20;;;;;;;43.40;31.95;;;9.80;99.90;;;;;;5096866;28;20329;-79
2023/01/13 00:03:47;;;;;;;46.80;30.63;;;9.80;99.90;;;;;;5095463;28;20048;-80
2023/01/13 00:06:18;;;;;;;48.95;33.50;;;9.80;99.90;;;;;;5095422;28;20044;-80
2023/01/13 00:08:50;;;;;;;46.75;31.25;;;9.80;99.90;;;;;;5096863;28;20040;-80
2023/01/13 00:11:17;;;;;;;43.80;27.40;;;9.70;99.90;;;;;;5096503;28;20036;-80
2023/01/13 00:13:43;;;;;;;42.90;28.40;;;9.60;99.90;;;;;;5096759;28;20043;-80
2023/01/13 00:16:11;;;;;;;47.47;23.67;;;9.60;99.90;;;;;;5096688;28;20336;-79
2023/01/13 00:18:37;;;;;;;48.22;19.02;;;9.50;99.90;;;;;;5095647;28;20367;-79
2023/01/13 00:21:07;;;;;;;45.03;19.13;;;9.50;99.90;;;;;;5096720;28;20046;-79
2023/01/13 00:23:34;;;;;;;46.35;18.75;;;9.40;99.90;;;;;;5096573;28;20040;-79
2023/01/13 00:26:06;;;;;;;46.72;22.83;;;9.40;99.90;;;;;;5096641;28;20044;-80
2023/01/13 00:28:32;;;;;;;50.55;22.08;;;9.40;99.90;;;;;;5096594;28;20059;-79
2023/01/13 00:31:12;;;;;;;51.17;20.65;;;9.30;99.90;;;;;;5096595;28;20414;-79
2023/01/13 00:33:38;;;;;;;50.47;20.08;;;9.30;99.90;;;;;;5099412;28;20046;-79
2023/01/13 00:36:06;;;;;;;41.90;22.38;;;9.40;99.90;;;;;;5099202;28;20341;-80
2023/01/13 00:38:33;;;;;;;51.55;20.92;;;9.40;99.90;;;;;;5100453;28;20050;-80
2023/01/13 00:41:02;;;;;;;46.28;19.80;;;9.40;99.90;;;;;;5100354;28;20047;-79
2023/01/13 00:43:29;;;;;;;41.22;16.52;;;9.30;99.90;;;;;;5100808;28;20047;-80
2023/01/13 00:45:55;;;;;;;52.70;18.30;;;9.20;99.90;;;;;;5100295;28;20032;-80
2023/01/13 00:48:22;;;;;;;43.22;15.77;;;9.30;99.90;;;;;;5099986;28;20093;-80
2023/01/13 00:51:18;;;;;;;46.13;18.10;;;9.20;99.90;;;;;;5100175;28;20358;-80
2023/01/13 00:53:46;;;;;;;57.60;18.15;;;9.20;99.90;;;;;;5099032;28;20047;-79
2023/01/13 00:56:18;;;;;;;54.63;16.63;;;9.20;99.90;;;;;;5099783;28;20073;-80
2023/01/13 00:58:45;;;;;;;37.58;15.27;;;9.20;99.90;;;;;;5099022;28;20329;-80
2023/01/13 01:01:19;;;;;;;46.92;16.13;;;9.20;99.90;;;;;;5100021;28;20040;-80
2023/01/13 01:03:49;;;;;;;45.70;15.20;;;9.10;99.90;;;;;;5099621;28;20032;-80
2023/01/13 01:06:17;;;;;;;44.80;15.00;;;9.10;99.90;;;;;;5099231;28;20101;-80
2023/01/13 01:08:43;;;;;;;42.45;15.65;;;9.00;99.90;;;;;;5099557;28;20072;-80
2023/01/13 01:11:12;;;;;;;51.03;15.63;;;9.00;99.90;;;;;;5099511;28;20039;-80
2023/01/13 01:13:39;;;;;;;40.10;14.13;;;9.00;99.90;;;;;;5099770;28;20043;-80
2023/01/13 01:16:07;;;;;;;49.58;17.20;;;9.00;99.90;;;;;;5099448;28;20341;-80
2023/01/13 01:18:34;;;;;;;47.33;16.00;;;9.00;99.90;;;;;;5099665;28;20032;-80
2023/01/13 01:21:00;;;;;;;45.38;16.48;;;9.00;99.90;;;;;;5099638;28;20047;-79
2023/01/13 01:23:28;;;;;;;55.72;17.13;;;9.00;99.90;;;;;;5099484;28;20332;-79
2023/01/13 01:25:54;;;;;;;54.95;15.98;;;8.90;99.90;;;;;;5099222;28;20036;-80
2023/01/13 01:28:19;;;;;;;52.70;15.23;;;9.00;99.90;;;;;;5099541;28;20040;-79
2023/01/13 01:30:45;;;;;;;51.33;17.60;;;8.90;99.90;;;;;;5099483;28;20055;-79
2023/01/13 01:33:11;;;;;;;53.47;19.55;;;8.90;99.90;;;;;;5099414;28;20040;-79
2023/01/13 01:35:40;;;;;;;44.35;17.45;;;8.80;99.90;;;;;;5081179;28;20175;-79
2023/01/13 01:38:06;;;;;;;48.03;16.10;;;8.80;99.90;;;;;;5098664;28;20043;-79
2023/01/13 01:40:31;;;;;;;48.97;19.05;;;8.80;99.90;;;;;;5098248;28;20039;-80
2023/01/13 01:45:42;;;;;;;51.58;15.30;;;8.90;99.90;;;;;;5098566;28;20043;-80
2023/01/13 01:48:08;;;;;;;48.75;19.15;;;8.90;99.90;;;;;;5097832;28;20040;-80
2023/01/13 01:50:34;;;;;;;44.28;16.90;;;9.00;99.90;;;;;;5099072;28;20100;-80
2023/01/13 01:53:13;;;;;;;45.63;13.80;;;9.10;99.90;;;;;;5098812;28;20066;-79
2023/01/13 01:55:39;;;;;;;48.03;15.98;;;8.90;99.90;;;;;;5099003;28;20138;-79
2023/01/13 01:58:17;;;;;;;44.42;15.55;;;8.90;99.90;;;;;;5098892;28;20484;-80
2023/01/13 02:00:43;;;;;;;51.15;18.60;;;8.90;99.90;;;;;;5098906;28;20040;-80
2023/01/13 02:03:09;;;;;;;42.53;16.40;;;9.00;99.90;;;;;;5099142;28;20379;-80
2023/01/13 02:05:35;;;;;;;42.88;16.17;;;9.00;99.90;;;;;;5098821;28;20032;-80
2023/01/13 02:08:02;;;;;;;49.05;19.27;;;8.90;99.90;;;;;;5096961;28;20106;-80
2023/01/13 02:10:29;;;;;;;46.05;20.30;;;9.00;99.90;;;;;;5098405;28;20090;-80
2023/01/13 02:13:00;;;;;;;50.85;17.67;;;9.00;99.90;;;;;;5098673;28;20382;-80
2023/01/13 02:15:28;;;;;;;47.92;19.42;;;9.00;99.90;;;;;;5098649;28;20044;-80
2023/01/13 02:18:10;;;;;;;52.10;20.80;;;8.90;99.90;;;;;;5097491;28;20333;-80
2023/01/13 02:20:57;;;;;;;45.10;20.48;;;9.00;99.90;;;;;;5098469;28;20036;-80
2023/01/13 02:26:52;;;;;;;47.50;22.95;;;9.10;99.90;;;;;;5098420;28;19961;-80
2023/01/13 02:33:04;;;;;;;48.28;18.65;;;9.10;99.90;;;;;;5097995;28;20483;-79
2023/01/13 02:35:47;;;;;;;49.70;18.25;;;9.10;99.90;;;;;;5098250;28;20071;-80
2023/01/13 02:38:16;;;;;;;46.45;18.00;;;9.10;99.90;;;;;;5097811;28;20310;-80
2023/01/13 02:40:55;;;;;;;46.53;17.95;;;9.10;99.90;;;;;;5098041;28;20040;-80
2023/01/13 02:46:33;;;;;;;47.53;20.13;;;9.00;99.90;;;;;;5098067;28;20047;-80
2023/01/13 02:49:05;;;;;;;48.13;19.48;;;9.00;99.90;;;;;;5097646;28;20062;-80
2023/01/13 02:51:32;;;;;;;51.95;22.77;;;9.00;99.90;;;;;;5097573;28;20429;-80
2023/01/13 02:54:00;;;;;;;45.58;21.30;;;9.10;99.90;;;;;;5097731;28;20083;-80
2023/01/13 02:56:26;;;;;;;52.15;19.95;;;9.10;99.90;;;;;;5097511;28;20044;-80
2023/01/13 02:58:55;;;;;;;44.42;19.17;;;9.00;99.90;;;;;;5097763;28;20328;-80
2023/01/13 03:01:21;;;;;;;47.50;23.75;;;9.00;99.90;;;;;;5097730;28;20061;-80
2023/01/13 03:03:48;;;;;;;47.63;19.80;;;9.00;99.90;;;;;;5097567;28;20051;-80
2023/01/13 03:06:55;;;;;;;55.70;22.30;;;9.00;99.90;;;;;;5096725;28;20040;-80
2023/01/13 03:09:46;;;;;;;45.75;21.27;;;9.00;99.90;;;;;;5055041;28;20166;-80
2023/01/13 03:12:25;;;;;;;50.28;22.30;;;8.90;99.90;;;;;;5095674;28;20458;-80
2023/01/13 03:15:08;;;;;;;49.97;21.10;;;9.10;99.90;;;;;;5096316;28;20046;-80
2023/01/13 03:17:45;;;;;;;44.08;20.50;;;9.10;99.90;;;;;;5097369;28;20036;-80
2023/01/13 03:20:15;;;;;;;52.72;22.08;;;9.10;99.90;;;;;;5097341;28;20036;-80
2023/01/13 03:23:09;;;;;;;44.60;19.70;;;9.10;99.90;;;;;;5097300;28;20039;-80
2023/01/13 03:25:42;;;;;;;45.17;23.23;;;9.10;99.90;;;;;;5089586;28;20055;-80
2023/01/13 03:28:17;;;;;;;54.13;23.50;;;9.00;99.90;;;;;;5097345;28;20044;-80
2023/01/13 03:30:51;;;;;;;49.45;23.05;;;9.00;99.90;;;;;;5097309;28;20039;-80
2023/01/13 03:33:23;;;;;;;48.80;24.40;;;8.90;99.90;;;;;;5096956;28;20076;-80
2023/01/13 03:35:52;;;;;;;45.60;22.73;;;8.80;99.90;;;;;;5097147;28;20051;-80
2023/01/13 03:38:28;;;;;;;54.92;18.38;;;8.80;99.90;;;;;;5096798;28;20420;-80
2023/01/13 03:40:57;;;;;;;41.20;15.57;;;8.80;99.90;;;;;;5097173;28;20046;-80
2023/01/13 03:46:25;;;;;;;36.03;16.92;;;8.90;99.90;;;;;;5097109;28;20186;-80
2023/01/13 03:48:56;;;;;;;47.38;19.55;;;8.90;99.90;;;;;;5096712;28;20036;-80
2023/01/13 03:51:26;;;;;;;39.30;17.90;;;9.00;99.90;;;;;;5096729;28;20426;-80
2023/01/13 03:53:58;;;;;;;40.70;18.55;;;9.00;99.90;;;;;;5096708;28;20062;-80
2023/01/13 03:56:48;;;;;;;44.58;19.98;;;9.00;99.90;;;;;;5096628;28;20441;-80
2023/01/13 03:59:21;;;;;;;48.60;20.45;;;8.90;99.90;;;;;;5096600;28;20052;-80
2023/01/13 04:02:00;;;;;;;43.97;23.80;;;8.90;99.90;;;;;;5096588;28;20137;-80
2023/01/13 04:04:57;;;;;;;42.58;22.77;;;9.00;99.90;;;;;;5095843;28;20302;-80
2023/01/13 04:07:28;;;;;;;;;;;8.80;99.90;;;;;;5096037;28;20329;-80
2023/01/13 04:09:56;;;;;;;38.78;26.88;;;8.90;99.90;;;;;;5101055;28;20049;-80
2023/01/13 04:13:01;;;;;;;44.80;24.98;;;8.90;99.90;;;;;;5100953;28;20040;-80
2023/01/13 04:15:33;;;;;;;45.17;24.63;;;8.80;99.90;;;;;;5100938;28;20118;-80
2023/01/13 04:18:27;;;;;;;41.30;20.80;;;8.80;99.90;;;;;;5100476;28;20059;-80
2023/01/13 04:20:56;;;;;;;45.67;25.42;;;8.80;99.90;;;;;;5095443;28;20056;-80
2023/01/13 04:23:21;;;;;;;54.75;26.88;;;8.70;99.90;;;;;;5100344;28;20040;-80
2023/01/13 04:25:48;;;;;;;53.67;28.95;;;8.70;99.90;;;;;;5100725;28;20097;-80
2023/01/13 04:28:14;;;;;;;45.00;26.63;;;8.70;99.90;;;;;;5099367;28;20040;-80
2023/01/13 04:30:41;;;;;;;40.13;25.38;;;8.80;99.90;;;;;;5100771;28;20044;-80
2023/01/13 04:33:07;;;;;;;51.97;26.27;;;8.70;99.90;;;;;;5100600;28;20089;-80
2023/01/13 04:35:33;;;;;;;39.13;26.65;;;8.70;99.90;;;;;;5100505;28;20032;-80
2023/01/13 04:38:01;;;;;;;43.25;27.38;;;8.70;99.90;;;;;;5098770;28;20050;-80
2023/01/13 04:40:27;;;;;;;56.17;27.45;;;8.70;99.90;;;;;;5100419;28;20040;-80
2023/01/13 04:42:52;;;;;;;49.05;25.05;;;8.70;99.90;;;;;;5099966;28;20044;-80
2023/01/13 04:45:18;;;;;;;42.85;22.05;;;8.70;99.90;;;;;;5099981;28;20051;-80
2023/01/13 04:47:44;;;;;;;46.13;20.33;;;8.60;99.90;;;;;;5100029;28;20051;-80
2023/01/13 04:50:10;;;;;;;46.08;23.05;;;8.60;99.90;;;;;;5100027;28;20036;-80
2023/01/13 04:52:36;;;;;;;50.25;21.73;;;8.80;99.90;;;;;;5100175;28;20089;-80
2023/01/13 04:55:03;;;;;;;38.42;17.73;;;8.70;99.90;;;;;;5099785;28;20044;-80
2023/01/13 04:57:29;;;;;;;36.92;19.48;;;8.70;99.90;;;;;;5098803;28;20115;-80
2023/01/13 04:59:54;;;;;;;49.92;19.90;;;8.70;99.90;;;;;;5100034;28;20132;-80
2023/01/13 05:02:20;;;;;;;45.88;15.73;;;8.80;99.90;;;;;;5098898;28;20058;-80
2023/01/13 05:04:46;;;;;;;39.95;15.73;;;8.80;99.90;;;;;;5099932;28;20039;-80
2023/01/13 05:07:13;;;;;;;44.35;18.52;;;8.80;99.90;;;;;;5099288;28;20122;-80
2023/01/13 05:09:39;;;;;;;47.42;18.73;;;8.90;99.90;;;;;;5099897;28;20111;-80
2023/01/13 05:17:34;;;;;;;39.65;18.33;;;9.00;99.90;;;;;;5099807;28;20179;-80
2023/01/13 05:19:59;;;;;;;45.95;17.20;;;9.00;99.90;;;;;;5099516;28;20040;-80
2023/01/13 05:25:22;;;;;;;49.28;16.13;;;9.10;99.90;;;;;;5099333;28;20043;-80
2023/01/13 05:27:58;;;;;;;45.38;16.70;;;9.10;99.90;;;;;;5099257;28;20429;-80
2023/01/13 05:30:27;;;;;;;46.55;20.58;;;9.10;99.90;;;;;;5099467;28;20051;-80
2023/01/13 05:32:53;;;;;;;43.65;17.38;;;9.10;99.90;;;;;;5099223;28;20337;-80
2023/01/13 05:35:19;;;;;;;45.20;17.08;;;9.10;99.90;;;;;;5099679;28;20044;-80
2023/01/13 05:37:45;;;;;;;34.10;17.65;;;9.10;99.90;;;;;;5098929;28;20035;-80
2023/01/13 05:43:19;;;;;;;42.80;18.42;;;9.10;99.90;;;;;;5099026;28;20337;-80
2023/01/13 05:45:57;;;;;;;44.63;22.88;;;9.10;99.90;;;;;;5099250;28;20040;-80
2023/01/13 05:48:26;;;;;;;33.92;20.00;;;9.20;99.90;;;;;;5099175;28;20115;-80
2023/01/13 05:50:52;;;;;;;44.25;18.02;;;9.10;99.90;;;;;;5099077;28;20071;-80
2023/01/13 05:53:19;;;;;;;34.92;14.95;;;9.20;99.90;;;;;;5097562;28;20047;-80
2023/01/13 05:55:45;;;;;;;42.80;15.07;;;9.20;99.90;;;;;;5098516;28;20063;-80
2023/01/13 05:58:13;;;;;;;47.03;15.75;;;9.10;99.90;;;;;;5098956;28;20079;-80
2023/01/13 06:00:39;;;;;;;36.72;16.88;;;9.10;99.90;;;;;;5098885;28;20043;-80
2023/01/13 06:03:05;;;;;;;38.47;21.05;;;9.20;99.90;;;;;;5098807;28;20150;-80
2023/01/13 06:05:32;;;;;;;49.72;19.80;;;9.20;99.90;;;;;;5098524;28;20134;-80
2023/01/13 06:08:02;;;;;;;41.22;18.55;;;9.10;99.90;;;;;;5098349;28;20036;-81
2023/01/13 06:10:28;;;;;;;43.65;20.45;;;9.00;99.90;;;;;;5097640;28;20429;-87
2023/01/13 06:12:54;;;;;;;42.70;19.58;;;9.10;99.90;;;;;;5098705;28;20125;-80
2023/01/13 06:15:21;;;;;;;39.90;17.73;;;9.10;99.90;;;;;;5097558;28;20044;-80
2023/01/13 06:17:47;;;;;;;32.25;17.13;;;9.10;99.90;;;;;;5098292;28;20421;-74
2023/01/13 06:20:14;;;;;;;47.92;15.43;;;9.10;99.90;;;;;;5098532;28;20043;-78
2023/01/13 06:22:47;;;;;;;31.25;13.18;;;9.00;99.90;;;;;;5098362;28;20043;-78
2023/01/13 06:25:37;;;;;;;40.58;14.32;;;8.90;99.90;;;;;;5098421;28;20040;-82
2023/01/13 06:28:03;;;;;;;41.05;18.05;;;9.00;99.90;;;;;;5098384;28;20374;-79
2023/01/13 06:30:37;;;;;;;33.75;19.45;;;9.10;99.90;;;;;;5097424;28;20094;-79
2023/01/13 06:33:07;;;;;;;37.58;20.63;;;9.20;99.90;;;;;;5097218;28;20075;-78
2023/01/13 06:35:35;;;;;;;25.90;15.13;;;9.20;99.90;;;;;;5098294;28;20107;-81
2023/01/13 06:38:03;;;;;;;35.90;16.60;;;9.20;99.90;;;;;;5097785;28;20123;-76
2023/01/13 06:40:29;;;;;;;35.45;19.17;;;9.20;99.90;;;;;;5098163;28;20330;-78
2023/01/13 06:43:15;;;;;;;34.00;18.85;;;9.20;99.90;;;;;;5096849;28;20066;-79
2023/01/13 06:46:01;;;;;;;27.88;19.67;;;9.20;99.90;;;;;;5097707;28;20078;-80
2023/01/13 06:48:34;;;;;;;38.15;29.98;;;9.20;99.90;;;;;;5096725;28;20044;-81
2023/01/13 06:51:00;;;;;;;40.42;36.20;;;9.10;99.90;;;;;;5093813;28;20365;-79
2023/01/13 06:53:26;;;;;;;49.55;40.28;;;9.00;99.90;;;;;;5095786;28;20126;-81
2023/01/13 06:55:51;;;;;;;53.10;44.15;;;8.90;99.90;;;;;;5096362;28;20230;-82
2023/01/13 06:58:17;;;;;;;55.60;50.03;;;8.80;99.90;;;;;;5096268;28;20437;-80
2023/01/13 07:00:43;;;;;;;60.15;53.78;;;8.90;99.90;;;;;;5078385;28;20473;-77
2023/01/13 07:03:14;;;;;;;51.97;46.00;;;8.90;99.90;;;;;;5079409;28;20050;-77
2023/01/13 07:05:41;;;;;;;49.70;44.72;;;8.80;99.90;;;;;;5096325;28;20042;-77
2023/01/13 07:08:08;;;;;;;48.97;43.20;;;8.70;99.90;;;;;;5096804;28;20044;-77
2023/01/13 07:10:35;;;;;;;51.90;45.25;;;8.60;99.90;;;;;;5095150;28;20040;-76
2023/01/13 07:15:57;;;;;;;59.65;53.28;;;8.60;99.90;;;;;;5097497;28;20105;-76
2023/01/13 07:18:23;;;;;;;64.97;59.28;;;8.60;99.90;;;;;;5096523;28;20127;-76
2023/01/13 07:20:57;;;;;;;67.25;61.15;;;8.50;99.90;;;;;;5097112;28;20043;-76
2023/01/13 07:23:26;;;;;;;74.10;67.82;;;8.50;99.90;;;;;;5097562;28;20036;-75
2023/01/13 07:25:55;;;;;;;76.13;68.60;;;8.40;99.90;;;;;;5097092;28;20032;-75
2023/01/13 07:28:20;;;;;;;74.78;68.80;;;8.20;99.90;;;;;;5096888;28;20032;-75
2023/01/13 07:30:46;;;;;;;80.60;74.03;;;8.30;99.90;;;;;;5097413;28;20086;-75
2023/01/13 07:33:12;;;;;;;86.35;79.78;;;8.30;99.90;;;;;;5097383;28;20417;-72
2023/01/13 07:35:37;;;;;;;92.10;85.05;;;8.30;99.90;;;;;;5097191;28;20127;-77
2023/01/13 07:38:03;;;;;;;93.40;86.07;;;8.30;99.90;;;;;;5096506;28;20422;-76
2023/01/13 07:40:31;;;;;;;96.40;88.78;;;8.30;99.90;;;;;;5096198;28;20298;-77
2023/01/13 07:45:41;;;;;;;92.35;84.38;;;8.20;99.90;;;;;;5097052;28;20325;-77
2023/01/13 07:48:07;;;;;;;89.25;82.22;;;8.10;99.90;;;;;;5097006;28;20035;-75
2023/01/13 07:50:33;;;;;;;85.00;76.72;;;8.00;99.90;;;;;;5095680;28;20067;-72
2023/01/13 07:52:59;;;;;;;90.70;82.88;;;8.00;99.90;;;;;;5096959;28;20054;-72
2023/01/13 07:55:24;;;;;;;93.07;84.95;;;8.00;99.90;;;;;;5096533;28;20056;-73
2023/01/13 07:57:50;;;;;;;93.57;86.50;;;8.00;99.90;;;;;;5095834;28;20048;-73
2023/01/13 08:00:16;;;;;;;89.35;81.55;;;8.00;99.90;;;;;;5096868;28;20040;-73
2023/01/13 08:02:42;;;;;;;88.78;80.75;;;8.00;99.90;;;;;;5096460;28;20437;-73
2023/01/13 08:05:08;;;;;;;80.78;74.30;;;8.00;99.90;;;;;;5095777;28;20078;-73
2023/01/13 08:07:34;;;;;;;86.53;78.20;;;8.00;99.90;;;;;;5095217;28;20033;-73
2023/01/13 08:10:00;;;;;;;79.90;72.38;;;8.10;99.90;;;;;;5096844;28;20032;-76
2023/01/13 08:15:10;;;;;;;74.53;67.53;;;8.10;99.90;;;;;;5096758;28;20047;-69
2023/01/13 08:17:36;;;;;;;63.60;57.50;;;8.10;99.90;;;;;;5096705;28;20032;-71
2023/01/13 08:20:03;;;;;;;62.58;56.58;;;8.10;99.90;;;;;;5096689;28;20322;-72
2023/01/13 08:22:31;;;;;;;64.18;58.03;;;8.20;99.90;;;;;;5096307;28;20036;-70
2023/01/13 08:24:58;;;;;;;59.83;53.90;;;8.20;99.90;;;;;;5079236;28;20123;-69
2023/01/13 08:27:24;;;;;;;61.63;55.42;;;8.20;99.90;;;;;;5096605;28;20040;-69
2023/01/13 08:29:50;;;;;;;58.60;50.00;;;8.30;99.90;;;;;;5096339;28;20036;-69
2023/01/13 08:32:15;;;;;;;53.75;48.28;;;8.30;99.90;;;;;;5095527;28;20059;-69
2023/01/13 08:34:42;;;;;;;51.45;45.03;;;8.30;99.90;;;;;;5096502;28;20036;-69
2023/01/13 08:37:07;;;;;;;58.45;44.40;;;8.30;99.90;;;;;;5095696;28;20047;-70
2023/01/13 08:39:34;;;;;;;42.78;31.73;;;8.40;99.90;;;;;;5096523;28;20314;-70
2023/01/13 08:42:01;;;;;;;46.85;31.77;;;8.30;99.90;;;;;;5095303;28;20068;-69
2023/01/13 08:44:29;;;;;;;52.38;38.40;;;8.30;99.90;;;;;;5096100;28;20039;-70
2023/01/13 08:46:56;;;;;;;43.53;32.42;;;8.40;99.90;;;;;;5096428;28;20118;-69
2023/01/13 08:49:23;;;;;;;44.10;39.35;;;8.40;99.90;;;;;;5096453;28;20054;-69
2023/01/13 08:51:50;;;;;;;49.00;33.60;;;8.50;99.90;;;;;;5096399;28;20076;-70
2023/01/13 08:54:17;;;;;;;46.88;30.08;;;8.50;99.90;;;;;;5098242;28;20060;-70
2023/01/13 08:56:43;;;;;;;50.70;37.78;;;8.50;99.90;;;;;;5100192;28;20119;-69
2023/01/13 08:59:16;;;;;;;56.55;39.78;;;8.60;99.90;;;;;;5100153;28;20482;-70
2023/01/13 09:01:43;;;;;;;51.72;41.47;;;8.60;99.90;;;;;;5099867;28;20044;-69
2023/01/13 09:04:16;;;;;;;54.50;48.83;;;8.70;99.90;;;;;;5099631;28;20114;-69
2023/01/13 09:06:42;;;;;;;55.53;48.85;;;8.70;99.90;;;;;;5099312;28;20447;-70
2023/01/13 09:09:08;;;;;;;53.42;48.15;;;8.60;99.90;;;;;;5099950;28;20048;-70
2023/01/13 09:14:24;;;;;;;73.72;66.03;;;8.50;99.90;;;;;;5099856;28;20045;-67
2023/01/13 09:16:50;;;;;;;79.28;71.07;;;8.60;99.90;;;;;;5099719;28;20363;-70
2023/01/13 09:19:16;;;;;;;83.25;74.75;;;8.60;99.90;;;;;;5099706;28;20039;-69
2023/01/13 09:21:41;;;;;;;85.57;76.90;;;8.50;99.90;;;;;;5098330;28;20433;-70
2023/01/13 09:24:07;;;;;;;92.22;83.55;;;8.40;99.90;;;;;;5099268;28;20043;-70
2023/01/13 09:26:33;;;;;;;93.35;84.10;;;8.40;99.90;;;;;;5098237;28;20036;-69
2023/01/13 09:28:59;;;;;;;94.85;85.75;;;8.30;99.90;;;;;;5099500;28;20043;-69
2023/01/13 09:31:24;;;;;;;96.20;88.00;;;8.30;99.90;;;;;;5099508;28;20321;-69
2023/01/13 09:36:34;;;;;;;88.22;80.32;;;8.10;99.90;;;;;;5099000;28;20051;-69
2023/01/13 09:39:00;;;;;;;83.30;76.28;;;8.00;99.90;;;;;;5099298;28;20035;-69
2023/01/13 09:44:24;;;;;;;88.38;80.80;;;8.00;99.90;;;;;;5099210;28;20059;-69
2023/01/13 09:46:55;;;;;;;99.82;91.35;;;8.00;99.90;;;;;;5099205;28;20371;-69
2023/01/13 09:49:36;;;;;;;111.03;101.60;;;7.90;99.90;;;;;;5099016;28;20039;-69
2023/01/13 09:52:23;;;;;;;114.03;104.90;;;8.10;99.90;;;;;;5098990;28;20036;-70
2023/01/13 09:55:04;;;;;;;115.15;105.70;;;8.10;99.90;;;;;;5098547;28;20052;-70
2023/01/13 09:57:35;;;;;;;122.70;111.78;;;8.10;99.90;;;;;;5097522;28;20071;-69
2023/01/13 10:00:05;;;;;;;122.45;112.53;;;8.00;99.90;;;;;;5097548;28;20072;-69
2023/01/13 10:02:52;;;;;;;127.15;115.80;;;8.00;99.90;;;;;;5098661;28;20036;-69
2023/01/13 10:05:27;;;;;;;;;;;8.00;99.90;;;;;;5098403;28;20378;-69
2023/01/13 10:08:21;;;;;;;124.53;113.30;;;8.00;99.90;;;;;;5098251;28;20225;-69
2023/01/13 10:10:54;;;;;;;133.55;122.70;;;8.00;99.90;;;;;;5098641;28;20321;-68
2023/01/13 10:13:28;;;;;;;129.88;119.82;;;8.00;99.90;;;;;;5098523;28;20063;-70
2023/01/13 10:16:09;;;;;;;132.13;121.30;;;8.00;99.90;;;;;;5097846;28;20052;-69
2023/01/13 10:18:54;;;;;;;119.75;111.15;;;8.00;99.90;;;;;;5097372;28;20329;-73
2023/01/13 10:21:52;;;;;;;117.72;107.95;;;8.00;99.90;;;;;;5097931;28;20040;-70
2023/01/13 10:24:25;;;;;;;114.07;104.70;;;8.00;99.90;;;;;;5097955;28;20475;-69
2023/01/13 10:27:11;;;;;;;117.10;108.53;;;8.00;99.90;;;;;;5098322;28;20047;-70
2023/01/13 10:29:37;;;;;;;114.85;105.68;;;8.00;99.90;;;;;;5098317;28;20044;-70
2023/01/13 10:32:03;;;;;;;113.47;104.95;;;8.00;99.90;;;;;;5097879;28;20042;-70
2023/01/13 10:34:29;;;;;;;113.45;105.05;;;8.00;99.90;;;;;;5098135;28;20062;-70
2023/01/13 10:37:07;;;;;;;108.05;99.47;;;8.10;99.90;;;;;;5097844;28;20040;-70
2023/01/13 10:39:45;;;;;;;114.57;105.30;;;8.00;99.90;;;;;;5097831;28;20039;-69
2023/01/13 10:42:16;;;;;;;106.05;98.43;;;8.00;99.90;;;;;;5097786;28;20036;-69
2023/01/13 10:44:48;;;;;;;116.95;107.93;;;8.10;99.90;;;;;;5097939;28;20090;-69
2023/01/13 10:47:25;;;;;;;116.07;107.68;;;8.10;99.90;;;;;;5098026;28;20032;-69
2023/01/13 10:50:14;;;;;;;121.07;111.88;;;8.10;99.90;;;;;;5096667;28;20043;-70
2023/01/13 10:52:58;;;;;;;115.82;107.00;;;8.20;99.90;;;;;;5094463;28;20052;-69
2023/01/13 10:55:32;;;;;;;117.65;108.80;;;8.20;99.90;;;;;;5097324;28;20494;-70
2023/01/13 10:58:19;;;;;;;115.18;106.03;;;8.20;99.90;;;;;;5097441;28;20394;-71
2023/01/13 11:00:45;;;;;;;;;;;8.20;99.90;;;;;;5097056;28;20056;-70
2023/01/13 11:03:22;;;;;;;114.45;105.85;;;8.20;99.90;;;;;;5097708;28;19924;-70
2023/01/13 11:05:59;;;;;;;108.85;101.22;;;8.30;99.90;;;;;;5096249;28;20044;-72
2023/01/13 11:08:45;;;;;;;111.38;103.50;;;8.30;99.90;;;;;;5097146;28;20040;-70
2023/01/13 11:11:38;;;;;;;103.95;95.65;;;8.30;99.90;;;;;;5097373;28;20489;-70
2023/01/13 11:14:32;;;;;;;106.15;97.35;;;8.20;99.90;;;;;;5096169;28;20083;-70
2023/01/13 11:17:09;;;;;;;105.90;97.63;;;8.30;99.90;;;;;;5097271;28;20047;-70
2023/01/13 11:19:40;;;;;;;106.43;98.20;;;8.30;99.90;;;;;;5097047;28;20437;-70
2023/01/13 11:22:16;;;;;;;106.20;97.35;;;8.40;99.90;;;;;;5097429;28;20040;-70
2023/01/13 11:24:58;;;;;;;87.82;80.85;;;8.40;99.90;;;;;;5097292;28;20126;-71
2023/01/13 11:27:46;;;;;;;93.85;86.65;;;8.30;99.90;;;;;;5097584;28;20040;-69
2023/01/13 11:30:36;;;;;;;93.75;86.13;;;8.40;99.90;;;;;;5097092;28;20036;-69
2023/01/13 11:33:02;;;;;;;80.72;74.32;;;8.30;99.90;;;;;;5096975;28;20425;-69
2023/01/13 11:35:30;;;;;;;84.35;78.00;;;8.30;99.90;;;;;;5097197;28;20058;-69
2023/01/13 11:38:12;;;;;;;66.90;60.70;;;8.30;99.90;;;;;;5096765;28;20174;-69
2023/01/13 11:40:45;;;;;;;61.72;56.28;;;8.40;99.90;;;;;;5097109;28;20101;-69
2023/01/13 11:43:16;;;;;;;67.82;62.30;;;8.40;99.90;;;;;;5097083;28;20063;-69
2023/01/13 11:45:48;;;;;;;75.97;70.43;;;8.40;99.90;;;;;;5097074;28;20044;-75
2023/01/13 11:48:18;;;;;;;72.25;66.72;;;8.50;99.90;;;;;;5097124;28;20467;-72
2023/01/13 11:51:10;;;;;;;58.38;53.47;;;8.60;99.90;;;;;;5095955;28;20125;-75
2023/01/13 11:53:51;;;;;;;61.03;56.65;;;8.70;99.90;;;;;;5096710;28;20489;-69
2023/01/13 11:56:27;;;;;;;53.00;47.53;;;8.70;99.90;;;;;;5096558;28;20171;-69
2023/01/13 11:59:07;;;;;;;47.27;42.53;;;8.70;99.90;;;;;;5096973;28;20048;-69
2023/01/13 12:01:39;;;;;;;49.13;44.85;;;8.80;99.90;;;;;;5096926;28;20460;-69
2023/01/13 12:04:34;;;;;;;49.28;45.08;;;8.80;99.90;;;;;;5096804;28;20098;-69
2023/01/13 12:07:33;;;;;;;64.75;58.40;;;8.80;99.90;;;;;;5095837;28;20051;-70
2023/01/13 12:10:10;;;;;;;50.08;45.25;;;8.80;99.90;;;;;;5096302;28;20046;-70
2023/01/13 12:12:46;;;;;;;44.55;41.00;;;8.80;99.90;;;;;;5095458;28;20053;-70
2023/01/13 12:15:17;;;;;;;41.45;37.40;;;8.80;99.90;;;;;;5096761;28;20089;-70
2023/01/13 12:18:01;;;;;;;51.83;47.08;;;8.80;99.90;;;;;;5096454;28;20441;-70
2023/01/13 12:20:54;;;;;;;60.20;55.55;;;8.80;99.90;;;;;;5096457;28;20126;-70
2023/01/13 12:23:25;;;;;;;49.92;45.92;;;8.80;99.90;;;;;;5096633;28;20041;-70
2023/01/13 12:26:00;;;;;;;48.63;44.10;;;8.80;99.90;;;;;;5096662;28;20044;-70
2023/01/13 12:28:31;;;;;;;38.75;35.17;;;8.90;99.90;;;;;;5097871;28;20040;-70
2023/01/13 12:31:01;;;;;;;38.65;34.65;;;8.90;99.90;;;;;;5100441;28;20036;-68
2023/01/13 12:33:38;;;;;;;31.67;28.38;;;8.90;99.90;;;;;;5100394;28;20040;-72
2023/01/13 12:36:15;;;;;;;35.47;32.10;;;8.90;99.90;;;;;;5100246;28;20433;-71
2023/01/13 12:38:48;;;;;;;33.55;23.50;;;9.00;99.90;;;;;;5100019;28;20166;-71
2023/01/13 12:44:35;;;;;;;29.17;23.83;;;9.10;99.90;;;;;;5100418;28;20051;-69
2023/01/13 12:47:00;;;;;;;26.08;20.13;;;9.20;99.90;;;;;;5100023;28;20036;-71
2023/01/13 12:49:31;;;;;;;25.63;21.67;;;9.20;99.90;;;;;;5100083;28;20043;-70
2023/01/13 12:52:23;;;;;;;27.63;24.88;;;9.10;99.90;;;;;;5100331;28;20076;-70
2023/01/13 12:54:49;;;;;;;28.27;25.50;;;9.20;99.90;;;;;;5098692;28;20128;-70
2023/01/13 12:57:23;;;;;;;25.25;22.20;;;9.20;99.90;;;;;;5099910;28;20349;-70
2023/01/13 13:00:04;;;;;;;28.63;20.70;;;9.20;99.90;;;;;;5100172;28;20043;-70
2023/01/13 13:02:35;;;;;;;23.33;18.63;;;9.20;99.90;;;;;;5099668;28;20040;-70
2023/01/13 13:05:14;;;;;;;27.38;24.67;;;9.20;99.90;;;;;;5100070;28;20044;-70
2023/01/13 13:07:44;;;;;;;25.98;23.55;;;9.30;99.90;;;;;;5099256;28;20115;-70
2023/01/13 13:10:18;;;;;;;30.83;25.45;;;9.30;99.90;;;;;;5099995;28;20068;-70
2023/01/13 13:15:32;;;;;;;23.10;18.25;;;9.40;99.90;;;;;;5100402;28;20109;-70
2023/01/13 13:17:58;;;;;;;23.58;21.10;;;9.40;99.90;;;;;;5099519;28;20123;-70
2023/01/13 13:20:54;;;;;;;25.08;20.42;;;9.40;99.90;;;;;;5099715;28;20065;-70
2023/01/13 13:23:46;;;;;;;23.47;18.40;;;9.40;99.90;;;;;;5099652;28;20044;-70
2023/01/13 13:26:21;;;;;;;19.17;16.27;;;9.40;99.90;;;;;;5099665;28;20071;-70
2023/01/13 13:28:55;;;;;;;22.92;20.65;;;9.40;99.90;;;;;;5098550;28;20386;-70
2023/01/13 13:31:30;;;;;;;24.55;22.02;;;9.40;99.90;;;;;;5098179;28;20044;-70
2023/01/13 13:34:04;;;;;;;22.00;20.02;;;9.40;99.90;;;;;;5099251;28;20104;-70
2023/01/13 13:37:24;;;;;;;28.60;20.08;;;9.40;99.90;;;;;;5099497;28;20063;-70
2023/01/13 13:48:26;;;;;;;25.52;20.75;;;9.30;99.90;;;;;;5097912;28;20357;-71
2023/01/13 13:50:57;;;;;;;22.50;16.15;;;9.30;99.90;;;;;;5098815;28;20418;-71
2023/01/13 13:53:31;;;;;;;17.65;14.07;;;9.40;99.90;;;;;;5098827;28;20429;-71
2023/01/13 13:55:59;;;;;;;20.15;18.20;;;9.40;99.90;;;;;;5098752;28;20065;-71
2023/01/13 13:58:32;;;;;;;21.25;14.25;;;9.40;99.90;;;;;;5099039;28;20039;-71